Time;durP1;ratioP1;P1;durP2;ratioP2;P2;SDS_P1;SDS_P2;PMS_P1;PMS_P2;Temp;Humidity;BMP_temperature;BMP_pressure;BME280_temperature;BME280_humidity;BME280_pressure;Samples;Min_cycle;Max_cycle;Signal;HPM_P1;HPM_P2
2024/04/08 00:00:42;;;;;;;13.55;2.05;;;;;;;14.44;58.86;100999.28;5026802;28;20483;-48
2024/04/08 00:03:07;;;;;;;12.52;2.10;;;;;;;14.41;58.95;100996.91;5056249;28;20558;-55
2024/04/08 00:05:34;;;;;;;13.27;2.45;;;;;;;14.42;59.35;100985.19;5012170;28;20045;-52
2024/04/08 00:08:01;;;;;;;21.02;3.47;;;;;;;14.39;59.83;100993.53;5043710;28;20049;-51
2024/04/08 00:10:27;;;;;;;14.35;3.45;;;;;;;14.40;60.36;100982.66;5040758;28;20057;-51
2024/04/08 00:12:52;;;;;;;11.63;3.00;;;;;;;14.38;60.83;100984.63;5042824;28;20072;-52
2024/04/08 00:15:18;;;;;;;14.50;3.20;;;;;;;14.43;60.62;100989.56;5041139;28;20049;-53
2024/04/08 00:17:44;;;;;;;18.35;2.28;;;;;;;14.42;59.56;100991.38;5022299;28;20128;-55
2024/04/08 00:20:11;;;;;;;10.82;2.15;;;;;;;14.42;60.01;100987.88;5031885;28;20049;-52
2024/04/08 00:22:38;;;;;;;10.00;2.10;;;;;;;14.50;59.95;100987.97;5056543;28;21952;-50
2024/04/08 00:25:08;;;;;;;11.63;1.92;;;;;;;14.48;59.92;100982.75;5058538;28;20041;-55
2024/04/08 00:27:34;;;;;;;10.88;2.15;;;;;;;14.55;60.48;100993.69;5041354;28;20057;-49
2024/04/08 00:30:00;;;;;;;11.95;2.30;;;;;;;14.47;60.92;100988.25;5032253;28;20413;-49
2024/04/08 00:32:25;;;;;;;12.52;2.40;;;;;;;14.42;61.15;100993.22;5032752;28;20052;-52
2024/04/08 00:34:51;;;;;;;11.95;2.53;;;;;;;14.41;61.68;101003.09;5029600;28;20045;-48
2024/04/08 00:37:17;;;;;;;14.20;2.53;;;;;;;14.54;61.03;100998.22;5042536;28;20495;-48
2024/04/08 00:39:43;;;;;;;8.77;1.88;;;;;;;14.47;61.13;101005.19;5029727;28;20038;-52
2024/04/08 00:42:08;;;;;;;8.23;2.08;;;;;;;14.49;61.52;101008.56;5032615;28;20049;-51
2024/04/08 00:44:34;;;;;;;17.65;4.00;;;;;;;14.47;61.21;101015.09;5020157;28;20526;-52
2024/04/08 00:47:00;;;;;;;13.52;3.25;;;;;;;14.35;63.00;101014.47;5032596;28;20187;-48
2024/04/08 00:49:28;;;;;;;16.73;2.20;;;;;;;14.14;62.56;101012.09;5041968;28;20064;-55
2024/04/08 00:51:56;;;;;;;12.13;2.25;;;;;;;14.41;62.47;101002.28;5045891;28;20041;-47
2024/04/08 00:54:25;;;;;;;11.45;2.20;;;;;;;14.34;63.65;101000.22;5044166;28;20392;-49
2024/04/08 00:56:53;;;;;;;11.18;2.53;;;;;;;14.28;64.21;100998.16;5046434;28;20051;-53
2024/04/08 00:59:21;;;;;;;11.15;2.58;;;;;;;14.28;64.61;101008.88;5044267;28;20051;-51
2024/04/08 01:01:49;;;;;;;10.32;1.98;;;;;;;14.19;63.58;101014.31;5046239;28;20049;-53
2024/04/08 01:04:15;;;;;;;11.20;2.20;;;;;;;14.32;62.93;101023.66;5046237;28;20436;-47
2024/04/08 01:06:41;;;;;;;6.93;1.85;;;;;;;14.13;63.43;101021.13;5044404;28;20055;-53
2024/04/08 01:09:08;;;;;;;13.77;2.95;;;;;;;14.31;63.00;101029.19;5043229;28;20055;-52
2024/04/08 01:11:35;;;;;;;13.10;2.17;;;;;;;14.05;63.64;101020.22;5040060;28;20427;-53
2024/04/08 01:14:01;;;;;;;8.15;2.50;;;;;;;14.10;64.04;101016.09;5032572;28;20045;-53
2024/04/08 01:16:27;;;;;;;10.35;1.75;;;;;;;14.15;62.59;101005.75;5044196;28;20053;-54
2024/04/08 01:18:53;;;;;;;10.02;2.75;;;;;;;14.19;63.18;101015.16;5045223;28;20535;-52
2024/04/08 01:21:19;;;;;;;8.43;2.22;;;;;;;14.09;63.65;101008.22;5040753;28;20140;-50
2024/04/08 01:23:45;;;;;;;18.73;2.67;;;;;;;14.14;62.74;101012.09;5010546;28;20206;-52
2024/04/08 01:26:11;;;;;;;17.25;2.58;;;;;;;14.06;63.66;101009.34;5044174;28;20511;-52
2024/04/08 01:28:38;;;;;;;10.68;2.28;;;;;;;14.06;63.07;101004.00;5038550;28;20053;-53
2024/04/08 01:31:04;;;;;;;6.90;1.90;;;;;;;13.77;64.51;100998.00;5032102;28;20049;-49
2024/04/08 01:33:30;;;;;;;15.00;2.38;;;;;;;14.03;63.87;101003.47;5041407;28;20412;-51
2024/04/08 01:36:04;;;;;;;10.43;2.00;;;;;;;14.08;64.71;101018.09;4999456;28;20078;-56
2024/04/08 01:38:37;;;;;;;8.40;2.28;;;;;;;13.87;65.56;101009.50;5025414;28;20443;-55
2024/04/08 01:41:03;;;;;;;9.77;2.35;;;;;;;13.88;66.08;101014.72;5045312;28;20048;-52
2024/04/08 01:43:29;;;;;;;11.15;1.98;;;;;;;13.93;66.08;101014.25;5018390;28;20059;-53
2024/04/08 01:45:54;;;;;;;14.13;2.42;;;;;;;13.76;68.13;101017.78;5043808;28;20049;-55
2024/04/08 01:48:20;;;;;;;10.32;2.08;;;;;;;13.83;68.53;101002.78;4992858;28;20087;-52
2024/04/08 01:50:46;;;;;;;9.45;2.45;;;;;;;13.63;70.46;100990.50;5013973;28;20045;-53
2024/04/08 01:53:12;;;;;;;12.25;2.22;;;;;;;13.65;73.33;100986.69;5040780;28;20049;-53
2024/04/08 01:55:38;;;;;;;12.27;2.40;;;;;;;13.71;73.05;100978.03;5026847;28;20412;-52
2024/04/08 01:58:04;;;;;;;10.15;2.25;;;;;;;13.79;73.02;100980.78;5019790;28;20041;-48
2024/04/08 02:00:29;;;;;;;8.00;2.28;;;;;;;13.86;74.45;100991.75;5030901;28;20049;-55
2024/04/08 02:02:55;;;;;;;16.75;3.55;;;;;;;13.61;76.76;100987.97;4997642;28;20056;-50
2024/04/08 02:05:21;;;;;;;6.55;1.80;;;;;;;13.91;75.47;100989.44;5027751;28;20053;-52
2024/04/08 02:07:50;;;;;;;10.40;2.58;;;;;;;13.86;76.68;100989.06;5036399;28;20077;-55
2024/04/08 02:10:18;;;;;;;10.35;2.53;;;;;;;13.85;77.33;100996.25;5043071;28;20485;-53
2024/04/08 02:12:44;;;;;;;7.93;2.65;;;;;;;14.03;76.40;100995.44;5042254;28;20572;-52
2024/04/08 02:15:10;;;;;;;11.15;2.67;;;;;;;14.03;76.33;100988.22;5043891;28;20057;-49
2024/04/08 02:17:36;;;;;;;13.20;2.75;;;;;;;13.98;76.91;100992.34;5031417;28;20117;-49
2024/04/08 02:20:01;;;;;;;8.05;2.70;;;;;;;13.72;78.95;100982.41;5044468;28;20045;-49
2024/04/08 02:22:27;;;;;;;8.60;3.08;;;;;;;14.12;77.03;100981.09;5042483;28;20388;-54
2024/04/08 02:24:53;;;;;;;7.22;2.22;;;;;;;14.08;77.38;100982.41;5014594;28;20083;-53
2024/04/08 02:27:19;;;;;;;10.77;3.05;;;;;;;14.14;77.59;100979.09;5027853;28;20053;-53
2024/04/08 02:29:46;;;;;;;10.32;3.20;;;;;;;14.05;78.98;100969.28;5041744;28;20136;-53
2024/04/08 02:32:11;;;;;;;8.32;2.75;;;;;;;14.20;77.63;100973.13;5044508;28;20408;-51
2024/04/08 02:34:37;;;;;;;7.53;2.60;;;;;;;14.17;77.93;100968.94;5042542;28;20566;-47
2024/04/08 02:37:03;;;;;;;8.05;2.67;;;;;;;14.18;77.89;100959.88;5044572;28;20136;-46
2024/04/08 02:39:29;;;;;;;8.50;2.75;;;;;;;14.16;77.98;100953.84;5014485;28;20472;-49
2024/04/08 02:41:55;;;;;;;10.32;3.67;;;;;;;14.07;78.95;100949.41;5042268;28;20078;-50
2024/04/08 02:44:21;;;;;;;7.45;3.00;;;;;;;13.96;79.31;100949.66;5034131;28;20064;-53
2024/04/08 02:46:47;;;;;;;7.18;2.45;;;;;;;14.17;78.63;100941.28;5040770;28;20065;-52
2024/04/08 02:49:13;;;;;;;11.27;3.63;;;;;;;14.13;78.92;100961.31;5028790;28;20092;-54
2024/04/08 02:51:38;;;;;;;8.50;2.90;;;;;;;14.19;79.00;100966.91;5039914;28;20045;-54
2024/04/08 02:54:04;;;;;;;13.00;2.78;;;;;;;14.14;79.52;100968.38;5042365;28;20194;-51
2024/04/08 02:56:32;;;;;;;9.20;3.25;;;;;;;14.15;79.35;100964.72;5042039;28;20136;-47
2024/04/08 02:58:58;;;;;;;10.75;3.28;;;;;;;14.13;78.62;100970.22;5043445;28;20047;-55
2024/04/08 03:01:23;;;;;;;7.82;3.17;;;;;;;14.09;79.52;100960.81;5042311;28;20412;-53
2024/04/08 03:03:49;;;;;;;9.88;3.35;;;;;;;13.91;79.41;100966.16;5042793;28;20546;-49
2024/04/08 03:06:16;;;;;;;12.88;3.53;;;;;;;13.93;79.71;100964.19;5044153;28;20052;-51
2024/04/08 03:08:43;;;;;;;8.75;3.13;;;;;;;13.88;80.16;100957.63;5041523;28;20525;-51
2024/04/08 03:11:09;;;;;;;8.65;3.40;;;;;;;13.80;79.71;100950.34;5043424;28;20404;-54
2024/04/08 03:13:36;;;;;;;6.25;3.08;;;;;;;13.70;80.29;100944.19;5040993;28;20419;-51
2024/04/08 03:16:03;;;;;;;10.07;3.13;;;;;;;13.75;80.19;100938.41;5043726;28;20154;-51
2024/04/08 03:18:29;;;;;;;9.73;3.45;;;;;;;13.71;80.48;100942.38;5041608;28;20060;-48
2024/04/08 03:20:59;;;;;;;11.40;3.45;;;;;;;13.53;80.93;100940.50;5043962;28;20135;-52
2024/04/08 03:23:26;;;;;;;16.08;3.70;;;;;;;13.85;80.12;100941.81;5044070;28;20055;-54
2024/04/08 03:26:12;;;;;;;8.77;3.53;;;;;;;13.91;80.21;100941.22;5043577;28;20496;-51
2024/04/08 03:28:38;;;;;;;11.75;4.88;;;;;;;13.93;80.74;100948.09;5030107;28;20057;-50
2024/04/08 03:31:05;;;;;;;7.93;3.33;;;;;;;13.99;80.23;100932.41;5043593;28;20037;-51
2024/04/08 03:33:32;;;;;;;12.60;3.60;;;;;;;13.62;82.99;100924.56;5033690;28;20053;-54
2024/04/08 03:35:58;;;;;;;6.65;3.42;;;;;;;13.79;81.85;100921.88;5042573;28;20047;-53
2024/04/08 03:38:24;;;;;;;10.60;3.33;;;;;;;13.90;81.22;100926.97;5032695;28;20500;-55
2024/04/08 03:41:06;;;;;;;10.43;4.20;;;;;;;13.88;81.25;100922.78;5041977;28;20098;-49
2024/04/08 03:43:32;;;;;;;9.35;3.60;;;;;;;13.80;81.30;100915.50;5028073;28;20049;-51
2024/04/08 03:45:59;;;;;;;10.48;3.38;;;;;;;14.02;80.23;100921.38;5032448;28;20055;-51
2024/04/08 03:48:26;;;;;;;6.00;2.80;;;;;;;14.04;80.26;100920.22;5011513;28;20512;-49
2024/04/08 03:50:52;;;;;;;8.77;3.78;;;;;;;13.96;80.42;100922.00;5039585;28;20098;-48
2024/04/08 03:53:19;;;;;;;9.65;3.33;;;;;;;14.01;80.85;100922.38;5016471;28;20048;-51
2024/04/08 03:55:45;;;;;;;8.68;3.50;;;;;;;14.02;80.25;100922.22;5021539;28;20422;-50
2024/04/08 03:58:10;;;;;;;14.15;3.75;;;;;;;13.97;80.96;100918.34;5034809;28;20107;-50
2024/04/08 04:00:36;;;;;;;7.65;3.80;;;;;;;13.92;81.04;100927.66;5039476;28;20497;-52
2024/04/08 04:03:08;;;;;;;11.95;3.38;;;;;;;13.89;80.65;100936.03;5037583;28;20542;-52
2024/04/08 04:05:34;;;;;;;8.68;3.42;;;;;;;13.90;81.84;100935.00;5036240;28;20045;-51
2024/04/08 04:08:00;;;;;;;10.13;3.60;;;;;;;13.96;81.24;100938.09;5034183;28;20124;-49
2024/04/08 04:10:25;;;;;;;9.30;3.70;;;;;;;13.95;80.95;100931.88;5035744;28;20119;-49
2024/04/08 04:12:51;;;;;;;8.70;3.70;;;;;;;13.98;81.32;100936.91;5036742;28;20046;-50
2024/04/08 04:15:17;;;;;;;7.50;3.83;;;;;;;13.92;81.88;100932.19;5043104;28;20052;-50
2024/04/08 04:17:43;;;;;;;9.23;3.85;;;;;;;13.88;82.66;100925.47;5044393;28;21595;-50
2024/04/08 04:20:15;;;;;;;9.75;3.70;;;;;;;14.05;81.44;100921.06;5023414;28;20152;-51
2024/04/08 04:22:41;;;;;;;8.30;4.07;;;;;;;14.04;81.15;100916.72;5045570;28;20047;-51
2024/04/08 04:25:10;;;;;;;10.65;4.30;;;;;;;14.13;81.08;100921.97;5047525;28;20053;-48
2024/04/08 04:27:35;;;;;;;9.57;3.78;;;;;;;13.81;82.02;100924.41;5019466;28;20048;-51
2024/04/08 04:30:02;;;;;;;11.75;4.18;;;;;;;14.06;81.17;100934.31;5044815;28;20045;-56
2024/04/08 04:32:28;;;;;;;8.00;3.85;;;;;;;14.11;81.26;100929.31;5034934;28;20059;-52
2024/04/08 04:34:54;;;;;;;11.07;4.15;;;;;;;14.11;81.00;100921.28;5008453;28;20045;-53
2024/04/08 04:37:20;;;;;;;8.23;4.00;;;;;;;14.09;80.89;100927.81;5038445;28;20048;-50
2024/04/08 04:39:46;;;;;;;10.82;4.50;;;;;;;13.96;81.10;100930.91;5046244;28;20499;-50
2024/04/08 04:42:12;;;;;;;15.98;4.50;;;;;;;14.19;80.68;100928.53;5046725;28;20055;-52
2024/04/08 04:44:38;;;;;;;7.43;4.75;;;;;;;14.19;79.95;100918.66;5018328;28;20067;-52
2024/04/08 04:47:04;;;;;;;9.45;4.68;;;;;;;14.16;80.49;100934.22;5046241;28;20049;-51
2024/04/08 04:49:30;;;;;;;13.52;4.70;;;;;;;14.20;80.20;100931.06;5045059;28;20061;-49
2024/04/08 04:51:55;;;;;;;8.48;4.97;;;;;;;13.91;82.48;100919.78;5016655;28;20107;-51
2024/04/08 04:54:21;;;;;;;8.30;4.40;;;;;;;14.08;81.56;100912.72;5044359;28;20423;-50
2024/04/08 04:56:47;;;;;;;10.23;4.20;;;;;;;14.22;80.40;100918.38;5036293;28;20072;-47
2024/04/08 04:59:12;;;;;;;10.20;4.75;;;;;;;14.24;80.31;100918.22;5028151;28;20519;-51
2024/04/08 05:01:38;;;;;;;8.25;4.60;;;;;;;14.22;80.48;100928.25;5035807;28;20481;-51
2024/04/08 05:04:04;;;;;;;12.23;5.28;;;;;;;14.08;82.51;100926.97;5046668;28;20055;-55
2024/04/08 05:06:30;;;;;;;12.35;5.68;;;;;;;14.14;81.40;100926.34;5035081;28;20049;-46
2024/04/08 05:08:57;;;;;;;14.63;5.07;;;;;;;14.10;81.51;100930.34;5046352;28;20550;-57
2024/04/08 05:11:23;;;;;;;9.60;4.78;;;;;;;13.93;82.40;100925.84;5043915;28;20055;-52
2024/04/08 05:13:49;;;;;;;11.77;4.68;;;;;;;14.05;82.71;100927.25;5029920;28;20049;-51
2024/04/08 05:16:15;;;;;;;9.70;5.32;;;;;;;14.05;83.13;100929.94;5046005;28;20049;-49
2024/04/08 05:18:41;;;;;;;13.18;4.78;;;;;;;14.00;82.11;100928.72;5036187;28;20045;-49
2024/04/08 05:21:09;;;;;;;11.93;5.75;;;;;;;13.99;82.48;100927.88;5038494;28;20149;-55
2024/04/08 05:23:35;;;;;;;7.85;4.78;;;;;;;14.14;81.93;100920.97;5041766;28;20057;-53
2024/04/08 05:26:02;;;;;;;13.32;4.78;;;;;;;14.14;82.23;100929.03;5039554;28;20083;-53
2024/04/08 05:28:29;;;;;;;10.10;5.15;;;;;;;14.07;83.01;100919.06;5029503;28;20041;-49
2024/04/08 05:30:55;;;;;;;9.77;4.78;;;;;;;14.05;82.67;100916.53;5040986;28;20048;-54
2024/04/08 05:33:21;;;;;;;9.68;4.60;;;;;;;14.18;81.58;100914.28;5043281;28;20057;-50
2024/04/08 05:35:47;;;;;;;11.70;5.43;;;;;;;14.14;82.26;100912.94;5045975;28;20403;-51
2024/04/08 05:38:14;;;;;;;13.13;6.00;;;;;;;14.25;81.73;100901.94;5045092;28;20044;-56
2024/04/08 05:40:40;;;;;;;9.52;4.90;;;;;;;14.16;82.35;100892.19;5042841;28;20492;-48
2024/04/08 05:43:07;;;;;;;12.70;4.95;;;;;;;13.93;84.17;100891.84;5043624;28;20057;-51
2024/04/08 05:45:33;;;;;;;11.02;5.10;;;;;;;14.21;82.70;100894.38;5043816;28;20065;-51
2024/04/08 05:48:00;;;;;;;11.95;5.13;;;;;;;14.24;82.90;100904.81;5044986;28;20492;-52
2024/04/08 05:50:25;;;;;;;8.65;5.03;;;;;;;14.32;81.71;100892.28;5043419;28;20059;-54
2024/04/08 05:52:52;;;;;;;9.80;5.70;;;;;;;14.43;81.21;100898.38;5045936;28;20508;-55
2024/04/08 05:55:17;;;;;;;10.35;5.13;;;;;;;14.53;80.84;100899.97;5033324;28;20049;-52
2024/04/08 05:57:43;;;;;;;9.32;4.75;;;;;;;14.42;81.46;100905.59;5041381;28;20044;-53
2024/04/08 06:00:10;;;;;;;8.40;5.38;;;;;;;14.55;81.52;100899.81;5044174;28;20053;-51
2024/04/08 06:02:37;;;;;;;14.57;4.80;;;;;;;14.63;81.32;100897.19;5025406;28;20505;-52
2024/04/08 06:05:03;;;;;;;9.27;4.80;;;;;;;14.69;80.38;100901.91;5026257;28;20149;-51
2024/04/08 06:07:29;;;;;;;9.82;4.18;;;;;;;14.63;80.81;100919.50;5013063;28;20047;-54
2024/04/08 06:09:55;;;;;;;10.68;4.68;;;;;;;14.69;80.40;100920.69;5025549;28;20045;-53
2024/04/08 06:12:21;;;;;;;10.52;4.90;;;;;;;14.60;80.04;100918.94;5039279;28;20059;-54
2024/04/08 06:14:47;;;;;;;10.95;4.50;;;;;;;14.69;79.77;100928.72;5029010;28;20084;-53
2024/04/08 06:17:13;;;;;;;7.47;4.40;;;;;;;14.45;81.72;100928.56;5026795;28;20053;-52
2024/04/08 06:19:39;;;;;;;10.38;4.68;;;;;;;14.61;81.09;100923.31;5042848;28;20495;-52
2024/04/08 06:22:05;;;;;;;14.15;5.22;;;;;;;14.65;81.13;100935.44;5043782;28;20044;-52
2024/04/08 06:24:31;;;;;;;11.52;5.10;;;;;;;14.73;80.61;100932.75;5044076;28;20053;-49
2024/04/08 06:26:57;;;;;;;11.10;4.80;;;;;;;14.70;80.34;100942.00;5034496;28;20571;-55
2024/04/08 06:29:22;;;;;;;9.13;4.55;;;;;;;14.66;80.10;100937.09;5041629;28;20053;-55
2024/04/08 06:31:48;;;;;;;10.23;4.38;;;;;;;14.76;80.14;100951.25;5015099;28;20472;-56
2024/04/08 06:34:14;;;;;;;10.27;5.10;;;;;;;14.81;80.09;100950.75;5043268;28;20050;-51
2024/04/08 06:36:40;;;;;;;8.80;4.32;;;;;;;14.85;80.00;100952.97;5019353;28;20071;-50
2024/04/08 06:39:07;;;;;;;9.35;4.72;;;;;;;14.80;79.44;100951.75;5038659;28;20500;-49
2024/04/08 06:41:34;;;;;;;7.13;3.83;;;;;;;14.54;81.33;100966.03;5039075;28;20051;-54
2024/04/08 06:44:01;;;;;;;15.77;4.40;;;;;;;14.65;80.37;100964.94;5040020;28;21059;-54
2024/04/08 06:46:26;;;;;;;12.23;4.68;;;;;;;14.64;80.20;100965.94;5042791;28;20049;-54
2024/04/08 06:48:52;;;;;;;8.85;4.10;;;;;;;14.76;80.16;100955.75;5021682;28;20076;-51
2024/04/08 06:51:18;;;;;;;12.57;5.25;;;;;;;14.77;79.42;100960.13;5017435;28;20451;-52
2024/04/08 06:53:43;;;;;;;9.70;5.05;;;;;;;14.58;80.85;100967.38;5045408;28;20067;-56
2024/04/08 06:56:09;;;;;;;10.70;4.40;;;;;;;14.58;81.33;100971.94;5014827;28;20405;-50
2024/04/08 06:58:35;;;;;;;12.73;4.68;;;;;;;14.61;81.08;100983.16;5042194;28;20377;-48
2024/04/08 07:01:01;;;;;;;12.13;4.38;;;;;;;14.61;80.41;100976.97;5038146;28;20068;-50
2024/04/08 07:03:27;;;;;;;8.20;4.50;;;;;;;14.80;79.58;100979.41;5039993;28;20416;-52
2024/04/08 07:05:52;;;;;;;12.60;4.55;;;;;;;14.76;79.85;100983.44;5002038;28;20409;-50
2024/04/08 07:08:18;;;;;;;7.53;4.55;;;;;;;14.67;79.63;100992.41;5023721;28;20432;-51
2024/04/08 07:10:45;;;;;;;8.02;3.88;;;;;;;14.57;81.27;100999.75;5022378;28;20498;-49
2024/04/08 07:13:14;;;;;;;9.07;5.38;;;;;;;14.53;80.66;101007.25;5044128;28;20055;-53
2024/04/08 07:15:40;;;;;;;13.52;4.95;;;;;;;14.61;80.96;101015.34;5025811;28;20044;-51
2024/04/08 07:18:06;;;;;;;10.18;4.65;;;;;;;14.64;80.43;101015.06;5043835;28;20135;-52
2024/04/08 07:20:34;;;;;;;7.70;4.78;;;;;;;14.81;79.74;101028.56;5021913;28;20049;-56
2024/04/08 07:23:00;;;;;;;11.02;4.65;;;;;;;14.68;80.67;101039.72;5034568;28;20519;-52
2024/04/08 07:25:26;;;;;;;11.25;4.97;;;;;;;14.55;80.92;101036.59;5043815;28;20067;-53
2024/04/08 07:27:51;;;;;;;8.60;4.65;;;;;;;14.41;82.31;101024.56;5008328;28;20549;-50
2024/04/08 07:30:17;;;;;;;8.77;4.53;;;;;;;14.60;81.17;101023.56;5034391;28;20052;-51
2024/04/08 07:32:43;;;;;;;13.18;6.07;;;;;;;14.64;81.74;101008.84;5031033;28;20564;-53
2024/04/08 07:35:09;;;;;;;13.27;6.10;;;;;;;14.41;82.85;100995.06;5023306;28;20154;-53
2024/04/08 07:37:35;;;;;;;12.30;5.53;;;;;;;14.91;80.66;100984.53;5013981;28;20561;-52
2024/04/08 07:40:01;;;;;;;12.30;5.78;;;;;;;15.08;80.31;100980.91;5017051;28;20049;-53
2024/04/08 07:42:27;;;;;;;9.18;5.28;;;;;;;15.38;79.90;100968.81;5037010;28;20057;-53
2024/04/08 07:44:52;;;;;;;12.50;6.30;;;;;;;15.61;79.83;100966.34;5029694;28;20073;-51
2024/04/08 07:47:18;;;;;;;11.43;5.70;;;;;;;15.64;80.13;100960.66;5028954;28;20469;-49
2024/04/08 07:49:55;;;;;;;10.52;6.45;;;;;;;15.85;79.21;100961.03;5042862;28;20041;-54
2024/04/08 07:52:20;;;;;;;9.82;5.72;;;;;;;15.86;78.17;100970.75;5025023;28;20521;-53
2024/04/08 07:54:46;;;;;;;10.68;5.25;;;;;;;16.07;77.74;100967.59;5001322;28;20087;-55
2024/04/08 07:57:12;;;;;;;12.90;5.88;;;;;;;16.22;79.22;100962.41;5008562;28;20406;-52
2024/04/08 07:59:38;;;;;;;12.65;5.70;;;;;;;16.28;76.88;100969.81;5021781;28;20042;-52
2024/04/08 08:02:04;;;;;;;9.68;5.57;;;;;;;16.32;77.09;100972.97;5042478;28;20048;-48
2024/04/08 08:04:29;;;;;;;10.02;5.75;;;;;;;16.14;77.75;100975.81;5023061;28;20045;-48
2024/04/08 08:06:55;;;;;;;9.77;5.85;;;;;;;16.24;76.89;100968.44;5027689;28;20454;-50
2024/04/08 08:09:21;;;;;;;11.07;5.30;;;;;;;16.22;77.88;100965.91;5006420;28;20524;-54
2024/04/08 08:11:46;;;;;;;10.25;5.85;;;;;;;16.01;77.51;100983.56;5017945;28;20053;-51
2024/04/08 08:14:12;;;;;;;12.25;5.78;;;;;;;16.47;75.52;100985.59;5009302;28;20068;-53
2024/04/08 08:16:38;;;;;;;7.68;4.95;;;;;;;16.50;76.41;100982.53;5021492;28;20053;-55
2024/04/08 08:19:04;;;;;;;7.78;5.00;;;;;;;16.58;75.65;100987.06;5011915;28;20045;-54
2024/04/08 08:21:30;;;;;;;9.75;4.95;;;;;;;16.89;74.74;100988.03;5035995;28;20049;-51
2024/04/08 08:23:57;;;;;;;13.15;5.88;;;;;;;16.83;75.79;100987.88;5023378;28;20065;-51
2024/04/08 08:26:23;;;;;;;10.70;5.45;;;;;;;16.84;75.19;100978.75;5022547;28;20531;-49
2024/04/08 08:28:49;;;;;;;11.00;6.07;;;;;;;17.07;73.23;100966.28;5036130;28;20069;-49
2024/04/08 08:31:15;;;;;;;9.85;5.80;;;;;;;17.32;73.11;100967.00;5043520;28;20052;-54
2024/04/08 08:33:40;;;;;;;7.78;5.20;;;;;;;17.62;71.81;100968.03;5040347;28;20056;-53
2024/04/08 08:36:06;;;;;;;11.45;5.50;;;;;;;17.44;71.92;100977.22;5042601;28;20059;-53
2024/04/08 08:38:33;;;;;;;8.63;5.50;;;;;;;17.25;71.54;100977.63;5041173;28;20045;-48
2024/04/08 08:41:08;;;;;;;10.07;5.38;;;;;;;17.21;71.81;100976.31;5011993;28;20044;-53
2024/04/08 08:43:40;;;;;;;9.43;5.68;;;;;;;17.35;72.85;100972.03;5041267;28;20297;-53
2024/04/08 08:46:08;;;;;;;11.90;6.35;;;;;;;17.26;72.22;100965.00;5013096;28;20071;-50
2024/04/08 08:48:37;;;;;;;9.80;6.15;;;;;;;17.15;72.06;100955.47;5012982;28;20100;-54
2024/04/08 08:51:04;;;;;;;11.27;6.68;;;;;;;17.34;71.16;100957.72;5043174;28;20053;-51
2024/04/08 08:53:31;;;;;;;13.07;5.95;;;;;;;17.47;69.33;100946.38;5035943;28;20049;-50
2024/04/08 08:55:58;;;;;;;11.98;6.47;;;;;;;17.74;69.93;100958.53;5023033;28;20115;-54
2024/04/08 08:58:24;;;;;;;11.50;6.53;;;;;;;18.02;69.01;100970.47;5016560;28;20056;-53
2024/04/08 09:00:50;;;;;;;12.70;6.30;;;;;;;17.97;68.34;100970.16;5011327;28;20044;-54
2024/04/08 09:03:17;;;;;;;11.13;6.25;;;;;;;17.87;68.37;100966.84;5045094;28;20175;-50
2024/04/08 09:05:43;;;;;;;11.40;6.50;;;;;;;17.77;68.74;100966.28;5044453;28;20759;-47
2024/04/08 09:08:09;;;;;;;10.98;5.97;;;;;;;16.95;69.46;100971.19;5044444;28;20061;-53
2024/04/08 09:10:46;;;;;;;10.07;5.47;;;;;;;17.50;70.20;100980.22;5039508;28;20053;-52
2024/04/08 09:13:22;;;;;;;11.45;6.60;;;;;;;17.50;69.37;100972.13;5019485;28;20770;-50
2024/04/08 09:15:50;;;;;;;11.23;6.45;;;;;;;17.62;69.64;100965.31;5043524;28;21351;-51
2024/04/08 09:18:17;;;;;;;12.63;6.53;;;;;;;17.71;69.21;100959.72;5044423;28;20083;-48
2024/04/08 09:20:44;;;;;;;10.13;6.90;;;;;;;17.63;69.13;100962.44;5020891;28;20529;-51
2024/04/08 09:23:11;;;;;;;11.63;6.60;;;;;;;17.77;68.15;100963.56;5045926;28;20053;-51
2024/04/08 09:25:37;;;;;;;10.70;5.80;;;;;;;18.11;67.37;100947.81;5043924;28;20497;-52
2024/04/08 09:28:03;;;;;;;10.13;5.70;;;;;;;18.13;67.19;100936.84;5045702;28;20045;-54
2024/04/08 09:30:29;;;;;;;8.98;6.38;;;;;;;17.93;66.20;100936.47;5059396;28;20055;-51
2024/04/08 09:32:55;;;;;;;12.82;6.32;;;;;;;18.22;65.88;100920.38;5045830;28;20408;-51
2024/04/08 09:35:21;;;;;;;10.80;6.43;;;;;;;18.17;65.78;100914.72;5042327;28;20073;-50
2024/04/08 09:37:47;;;;;;;12.30;6.50;;;;;;;17.89;63.90;100902.81;5045716;28;20049;-53
2024/04/08 09:40:18;;;;;;;11.75;5.45;;;;;;;18.52;64.53;100888.91;5045594;28;20049;-52
2024/04/08 09:42:45;;;;;;;11.68;6.13;;;;;;;17.90;64.65;100884.78;5023093;28;22212;-49
2024/04/08 09:45:12;;;;;;;11.65;5.97;;;;;;;17.88;64.07;100878.72;5024604;28;20053;-50
2024/04/08 09:47:39;;;;;;;10.40;6.20;;;;;;;18.28;64.47;100864.00;5022562;28;20511;-49
2024/04/08 09:50:05;;;;;;;11.88;6.75;;;;;;;18.37;62.08;100846.72;5032427;28;20045;-54
2024/04/08 09:52:31;;;;;;;11.10;6.15;;;;;;;18.42;62.90;100842.44;5034785;28;20053;-52
2024/04/08 09:54:57;;;;;;;12.10;6.18;;;;;;;18.74;61.66;100841.25;5044215;28;20044;-54
2024/04/08 09:57:26;;;;;;;14.73;5.72;;;;;;;18.86;60.44;100837.03;5042300;28;20077;-51
2024/04/08 09:59:56;;;;;;;9.45;5.65;;;;;;;18.83;60.22;100845.50;5042533;28;20041;-52
2024/04/08 10:02:37;;;;;;;9.70;6.20;;;;;;;18.85;60.59;100856.97;5038255;28;20045;-52
2024/04/08 10:05:04;;;;;;;12.48;4.93;;;;;;;19.22;60.75;100857.84;5043411;28;20448;-55
2024/04/08 10:07:32;;;;;;;9.00;4.60;;;;;;;19.09;58.18;100853.06;5041533;28;20488;-54
2024/04/08 10:10:02;;;;;;;8.00;4.57;;;;;;;18.84;59.93;100849.03;5044474;28;20045;-49
2024/04/08 10:12:32;;;;;;;8.15;4.43;;;;;;;18.96;60.68;100848.38;5023419;28;20095;-51
2024/04/08 10:15:34;;;;;;;8.45;4.85;;;;;;;19.12;60.57;100851.88;5033951;28;20045;-54
2024/04/08 10:18:00;;;;;;;9.75;4.60;;;;;;;19.06;59.68;100852.63;5024520;28;20799;-51
2024/04/08 10:20:27;;;;;;;9.13;3.72;;;;;;;19.36;59.06;100852.38;5032093;28;20056;-50
2024/04/08 10:22:53;;;;;;;10.70;4.47;;;;;;;19.43;58.21;100840.81;5044565;28;20044;-51
2024/04/08 10:25:36;;;;;;;8.32;4.00;;;;;;;19.48;56.39;100844.59;5015883;28;20053;-50
2024/04/08 10:28:08;;;;;;;11.02;3.92;;;;;;;19.37;56.60;100845.94;5024535;28;20045;-53
2024/04/08 10:30:36;;;;;;;7.38;4.10;;;;;;;19.18;57.58;100851.94;5015933;28;20045;-52
2024/04/08 10:33:03;;;;;;;6.60;3.83;;;;;;;19.04;59.03;100852.81;5004442;28;20041;-50
2024/04/08 10:35:28;;;;;;;7.55;3.80;;;;;;;19.29;58.32;100858.75;5029926;28;20053;-51
2024/04/08 10:37:54;;;;;;;8.65;3.53;;;;;;;19.61;58.21;100865.50;5024497;28;20067;-48
2024/04/08 10:40:21;;;;;;;9.02;3.67;;;;;;;19.27;56.95;100861.66;5033688;28;20107;-52
2024/04/08 10:42:47;;;;;;;11.10;3.38;;;;;;;18.88;57.80;100855.75;5018903;28;20059;-50
2024/04/08 10:45:14;;;;;;;7.57;3.28;;;;;;;18.72;59.20;100847.84;5043751;28;20053;-49
2024/04/08 10:47:40;;;;;;;6.53;2.70;;;;;;;19.15;56.67;100846.09;5035447;28;20045;-51
2024/04/08 10:50:09;;;;;;;4.70;2.63;;;;;;;19.26;57.24;100846.47;5040758;28;20680;-51
2024/04/08 10:52:39;;;;;;;7.28;2.90;;;;;;;19.39;55.01;100843.88;5035869;28;20056;-52
2024/04/08 10:55:06;;;;;;;5.95;3.08;;;;;;;20.13;54.87;100835.38;5037607;28;20099;-53
2024/04/08 10:57:32;;;;;;;5.63;2.83;;;;;;;19.96;54.32;100847.53;5039342;28;20045;-54
2024/04/08 10:59:58;;;;;;;5.40;2.67;;;;;;;19.67;54.61;100837.69;5017442;28;20055;-51
2024/04/08 11:02:24;;;;;;;7.15;2.70;;;;;;;19.50;55.30;100834.41;5018197;28;20508;-49
2024/04/08 11:04:51;;;;;;;7.70;3.05;;;;;;;19.39;55.12;100837.66;5034201;28;20071;-51
2024/04/08 11:07:17;;;;;;;7.85;2.83;;;;;;;19.60;55.31;100834.94;5042743;28;20364;-53
2024/04/08 11:09:42;;;;;;;6.25;2.83;;;;;;;19.72;54.42;100817.16;5029613;28;20049;-49
2024/04/08 11:12:13;;;;;;;6.07;2.47;;;;;;;20.01;54.76;100818.88;5033151;28;20052;-48
2024/04/08 11:14:39;;;;;;;5.57;2.40;;;;;;;20.22;53.49;100814.44;5036268;28;20045;-54
2024/04/08 11:17:08;;;;;;;5.25;1.98;;;;;;;19.89;52.55;100823.13;5006659;28;20068;-52
2024/04/08 11:19:37;;;;;;;6.93;2.13;;;;;;;20.25;51.66;100822.16;5010527;28;20456;-55